Time,TemperatureF,DewpointF,PressureIn,WindDirection,WindDirectionDegrees,WindSpeedMPH,WindSpeedGustMPH,Humidity,HourlyPrecipIn,Conditions,Clouds,dailyrainin,SolarRadiationWatts/m^2,SoftwareType,DateUTC
2013-05-27 00:03:00,69.4,59.2,29.80,ENE,68,4.9,8.1,70,0.00,SCT,,0.00,0.0,WeatherDisplay:10.37,2013-05-27 05:03:00,
2013-05-27 00:08:00,69.4,59.2,29.80,SE,135,3.3,5.8,70,0.00,SCT,,0.00,0.0,WeatherDisplay:10.37,2013-05-27 05:08:00,
2013-05-27 00:13:00,69.6,59.4,29.80,ESE,112,4.7,5.8,70,0.00,SCT,,0.00,0.0,WeatherDisplay:10.37,2013-05-27 05:13:00,
2013-05-27 00:18:00,69.6,59.0,29.80,South,180,4.7,6.9,69,0.00,SCT,,0.00,0.0,WeatherDisplay:10.37,2013-05-27 05:18:00,
2013-05-27 00:23:00,69.8,58.8,29.80,ESE,112,4.5,8.1,68,0.00,SCT,,0.00,0.0,WeatherDisplay:10.37,2013-05-27 05:23:00,
2013-05-27 00:28:00,70.0,58.5,29.83,ESE,112,6.0,9.2,67,0.00,SCT,,0.00,0.0,WeatherDisplay:10.37,2013-05-27 05:28:00,
2013-05-27 00:34:00,70.0,58.5,29.83,SSW,202,6.4,8.1,67,0.00,SCT,,0.00,0.0,WeatherDisplay:10.37,2013-05-27 05:34:00,
2013-05-27 00:39:00,70.0,58.1,29.83,SSE,158,6.4,9.2,66,0.00,SCT,,0.00,0.0,WeatherDisplay:10.37,2013-05-27 05:39:00,
2013-05-27 00:44:00,70.0,58.1,29.80,SSE,158,6.2,8.1,66,0.00,SCT,,0.00,0.0,WeatherDisplay:10.37,2013-05-27 05:44:00,
2013-05-27 00:49:00,70.0,58.1,29.80,SSE,158,4.9,5.8,66,0.00,SCT,,0.00,0.0,WeatherDisplay:10.37,2013-05-27 05:49:00,
2013-05-27 00:54:00,70.0,58.1,29.80,ESE,112,6.0,6.9,66,0.00,SCT,,0.00,0.0,WeatherDisplay:10.37,2013-05-27 05:54:00,
2013-05-27 00:59:00,70.2,58.3,29.83,ESE,112,5.4,9.2,66,0.00,SCT,,0.00,0.0,WeatherDisplay:10.37,2013-05-27 05:59:00,
2013-05-27 01:04:00,70.2,58.3,29.83,ESE,112,5.6,8.1,66,0.00,SCT,,0.00,0.0,WeatherDisplay:10.37,2013-05-27 06:04:00,
2013-05-27 01:09:00,70.2,58.3,29.83,SE,135,6.0,8.1,66,0.00,SCT,,0.00,0.0,WeatherDisplay:10.37,2013-05-27 06:09:00,
2013-05-27 01:14:00,70.3,58.4,29.83,ESE,112,5.6,5.8,66,0.00,SCT,,0.00,0.0,WeatherDisplay:10.37,2013-05-27 06:14:00,
2013-05-27 01:19:00,70.3,58.9,29.83,South,180,4.0,8.1,67,0.00,SCT,,0.00,0.0,WeatherDisplay:10.37,2013-05-27 06:19:00,
2013-05-27 01:24:00,70.5,59.0,29.83,East,90,6.2,12.7,67,0.00,SCT,,0.00,0.0,WeatherDisplay:10.37,2013-05-27 06:24:00,
2013-05-27 01:30:00,70.5,59.0,29.83,ESE,112,5.6,8.1,67,0.00,SCT,,0.00,0.0,WeatherDisplay:10.37,2013-05-27 06:30:00,
2013-05-27 01:35:00,70.5,59.0,29.83,ESE,112,6.4,7.8,67,0.00,SCT,,0.00,0.0,WeatherDisplay:10.37,2013-05-27 06:35:00,
2013-05-27 01:40:00,70.7,59.6,29.83,ESE,112,5.4,8.1,68,0.00,SCT,,0.00,0.0,WeatherDisplay:10.37,2013-05-27 06:40:00,
2013-05-27 01:45:00,70.7,59.6,29.80,SSE,158,5.6,5.8,68,0.00,SCT,,0.00,0.0,WeatherDisplay:10.37,2013-05-27 06:45:00,
2013-05-27 01:50:00,70.7,59.6,29.80,ESE,112,4.7,6.9,68,0.00,SCT,,0.00,0.0,WeatherDisplay:10.37,2013-05-27 06:50:00,
2013-05-27 01:55:00,70.5,59.4,29.80,NNE,22,5.9,6.9,68,0.00,SCT,,0.00,0.0,WeatherDisplay:10.37,2013-05-27 06:55:00,
2013-05-27 02:00:00,70.7,60.0,29.80,NNW,338,9.7,9.7,69,0.00,SCT,,0.00,0.0,WeatherDisplay:10.37,2013-05-27 07:00:00,
2013-05-27 02:05:00,66.7,53.3,29.80,NNW,338,9.0,13.8,62,0.00,SCT,,0.00,0.0,WeatherDisplay:10.37,2013-05-27 07:05:00,
2013-05-27 02:10:00,64.4,54.8,29.80,WNW,292,7.4,12.7,71,0.08,RA,SCT,0.08,0.0,WeatherDisplay:10.37,2013-05-27 07:10:00,
2013-05-27 02:15:00,63.0,55.6,29.85,West,270,4.7,10.4,77,0.33,RA,SCT,0.37,0.0,WeatherDisplay:10.37,2013-05-27 07:15:00,
2013-05-27 02:20:00,62.2,56.7,29.85,ENE,68,5.4,9.2,82,0.46,RA,SCT,0.50,0.0,WeatherDisplay:10.37,2013-05-27 07:20:00,
2013-05-27 02:25:00,61.7,58.1,29.88,SW,225,4.9,9.2,88,0.59,RA,SCT,0.59,0.0,WeatherDisplay:10.37,2013-05-27 07:25:00,
2013-05-27 02:31:00,61.3,58.4,29.88,SE,135,3.6,11.5,90,0.67,RA,SCT,0.67,0.0,WeatherDisplay:10.37,2013-05-27 07:31:00,
2013-05-27 02:36:00,61.2,58.5,29.88,NNE,22,5.6,10.4,91,0.80,RA,SCT,0.80,0.0,WeatherDisplay:10.37,2013-05-27 07:36:00,
2013-05-27 02:41:00,61.0,58.9,29.85,South,180,3.8,8.1,93,0.84,RA,SCT,0.84,0.0,WeatherDisplay:10.37,2013-05-27 07:41:00,
2013-05-27 02:46:00,61.0,59.2,29.85,SE,135,5.9,8.5,94,0.88,RA,SCT,0.88,0.0,WeatherDisplay:10.37,2013-05-27 07:46:00,
2013-05-27 02:51:00,60.8,59.1,29.85,ESE,112,4.7,8.1,94,0.92,RA,SCT,0.92,0.0,WeatherDisplay:10.37,2013-05-27 07:51:00,
2013-05-27 02:56:00,60.8,59.4,29.83,NNW,338,3.6,6.9,95,0.92,RA,SCT,0.92,0.0,WeatherDisplay:10.37,2013-05-27 07:56:00,
2013-05-27 03:01:00,60.8,59.4,29.83,ESE,112,3.8,8.1,95,0.92,SCT,,0.92,0.0,WeatherDisplay:10.37,2013-05-27 08:01:00,
2013-05-27 03:06:00,60.6,59.5,29.83,North,0,4.7,8.1,96,0.96,RA,SCT,0.96,0.0,WeatherDisplay:10.37,2013-05-27 08:06:00,
2013-05-27 03:11:00,60.6,59.5,29.83,North,0,3.3,9.2,96,0.78,RA,SCT,0.96,0.0,WeatherDisplay:10.37,2013-05-27 08:11:00,
2013-05-27 03:16:00,60.6,59.5,29.83,NNE,22,4.3,4.6,96,0.58,SCT,,0.96,0.0,WeatherDisplay:10.37,2013-05-27 08:16:00,
2013-05-27 03:21:00,60.6,59.5,29.83,NNE,22,3.8,3.8,96,0.45,SCT,,0.96,0.0,WeatherDisplay:10.37,2013-05-27 08:21:00,
2013-05-27 03:26:00,60.4,59.3,29.80,ESE,112,3.8,8.1,96,0.37,SCT,,0.96,0.0,WeatherDisplay:10.37,2013-05-27 08:26:00,
2013-05-27 03:31:00,60.4,59.3,29.80,NNE,22,4.0,10.4,96,0.29,SCT,,0.96,0.0,WeatherDisplay:10.37,2013-05-27 08:31:00,
2013-05-27 03:36:00,60.3,59.4,29.80,NNE,22,4.9,6.2,97,0.16,SCT,,0.96,0.0,WeatherDisplay:10.37,2013-05-27 08:36:00,
2013-05-27 03:41:00,60.3,59.4,29.77,NNE,22,6.0,11.5,97,0.12,SCT,,0.96,0.0,WeatherDisplay:10.37,2013-05-27 08:41:00,
2013-05-27 03:46:00,60.3,59.4,29.77,East,90,3.3,4.6,97,0.08,SCT,,1.01,0.0,WeatherDisplay:10.37,2013-05-27 08:46:00,
2013-05-27 03:51:00,60.3,59.4,29.77,ENE,68,3.1,4.6,97,0.09,RA,SCT,1.01,0.0,WeatherDisplay:10.37,2013-05-27 08:51:00,
2013-05-27 03:57:00,60.3,59.4,29.77,WNW,292,4.3,6.9,97,0.09,SCT,,1.01,0.0,WeatherDisplay:10.37,2013-05-27 08:57:00,
2013-05-27 04:02:00,60.3,59.4,29.77,ENE,68,4.5,6.9,97,0.09,SCT,,1.01,0.0,WeatherDisplay:10.37,2013-05-27 09:02:00,
2013-05-27 04:07:00,60.3,59.4,29.77,ESE,112,5.6,5.8,97,0.05,SCT,,1.01,0.0,WeatherDisplay:10.37,2013-05-27 09:07:00,
2013-05-27 04:12:00,60.4,59.6,29.77,ESE,112,4.5,7.6,97,0.05,SCT,,1.01,0.0,WeatherDisplay:10.37,2013-05-27 09:12:00,
2013-05-27 04:17:00,60.4,59.6,29.77,East,90,4.3,10.4,97,0.05,SCT,,1.01,0.0,WeatherDisplay:10.37,2013-05-27 09:17:00,
2013-05-27 04:23:00,60.4,59.6,29.77,NNE,22,5.6,8.1,97,0.05,SCT,,1.01,0.0,WeatherDisplay:10.37,2013-05-27 09:23:00,
2013-05-27 04:28:00,60.4,59.3,29.77,East,90,9.0,10.4,96,0.05,SCT,,1.01,0.0,WeatherDisplay:10.37,2013-05-27 09:28:00,
2013-05-27 04:33:00,60.4,59.0,29.77,ENE,68,5.9,6.9,95,0.05,SCT,,1.01,0.0,WeatherDisplay:10.37,2013-05-27 09:33:00,
2013-05-27 04:38:00,60.4,59.0,29.77,ENE,68,3.3,5.8,95,0.05,SCT,,1.01,0.0,WeatherDisplay:10.37,2013-05-27 09:38:00,
2013-05-27 04:43:00,60.4,59.0,29.77,ESE,112,4.5,5.8,95,0.05,SCT,,1.01,0.0,WeatherDisplay:10.37,2013-05-27 09:43:00,
2013-05-27 04:48:00,60.4,59.0,29.77,ENE,68,3.1,4.6,95,0.00,SCT,,1.01,0.0,WeatherDisplay:10.37,2013-05-27 09:48:00,
2013-05-27 04:53:00,60.4,59.0,29.77,ESE,112,2.2,3.5,95,0.00,SCT,,1.01,0.0,WeatherDisplay:10.37,2013-05-27 09:53:00,
2013-05-27 04:58:00,60.3,58.5,29.77,ENE,68,3.6,4.6,94,0.00,SCT,,1.01,0.0,WeatherDisplay:10.37,2013-05-27 09:58:00,
2013-05-27 05:04:00,60.4,59.0,29.77,ESE,112,3.3,4.6,95,0.00,SCT,,1.01,0.0,WeatherDisplay:10.37,2013-05-27 10:04:00,
2013-05-27 05:09:00,60.4,58.7,29.77,SW,225,2.2,4.7,94,0.04,RA,SCT,1.05,0.0,WeatherDisplay:10.37,2013-05-27 10:09:00,
2013-05-27 05:14:00,60.4,58.7,29.80,SSE,158,2.9,4.0,94,0.04,RA,SCT,1.05,0.0,WeatherDisplay:10.37,2013-05-27 10:14:00,
2013-05-27 05:19:00,60.3,58.5,29.80,South,180,4.7,6.4,94,0.04,SCT,,1.05,0.0,WeatherDisplay:10.37,2013-05-27 10:19:00,
2013-05-27 05:24:00,60.3,58.5,29.80,ENE,68,4.0,5.8,94,0.04,SCT,,1.05,0.0,WeatherDisplay:10.37,2013-05-27 10:24:00,
2013-05-27 05:29:00,60.1,58.3,29.77,ESE,112,5.4,6.9,94,0.04,SCT,,1.05,0.0,WeatherDisplay:10.37,2013-05-27 10:29:00,
2013-05-27 05:34:00,60.1,58.3,29.77,SSE,158,7.1,9.2,94,0.04,SCT,,1.05,0.0,WeatherDisplay:10.37,2013-05-27 10:34:00,
2013-05-27 05:40:00,60.1,58.3,29.77,SSE,158,5.4,8.1,94,0.04,SCT,,1.05,0.0,WeatherDisplay:10.37,2013-05-27 10:40:00,
2013-05-27 05:45:00,60.1,58.3,29.77,ESE,112,6.7,8.1,94,0.08,RA,SCT,1.09,0.0,WeatherDisplay:10.37,2013-05-27 10:45:00,
2013-05-27 05:50:00,60.1,58.3,29.77,ESE,112,3.8,5.8,94,0.08,RA,SCT,1.09,0.0,WeatherDisplay:10.37,2013-05-27 10:50:00,
2013-05-27 05:55:00,60.1,58.3,29.77,ESE,112,3.8,5.8,94,0.08,SCT,,1.09,0.0,WeatherDisplay:10.37,2013-05-27 10:55:00,
2013-05-27 06:00:00,60.3,58.8,29.77,SSW,202,3.1,4.6,95,0.08,CLR,SCT,1.09,0.0,WeatherDisplay:10.37,2013-05-27 11:00:00,
2013-05-27 06:05:00,60.4,59.3,29.77,South,180,4.7,5.8,96,0.08,CLR,SCT,1.09,0.0,WeatherDisplay:10.37,2013-05-27 11:05:00,
2013-05-27 06:10:00,60.1,58.9,29.77,SSW,202,5.4,8.1,96,0.04,CLR,SCT,1.09,0.0,WeatherDisplay:10.37,2013-05-27 11:10:00,
2013-05-27 06:15:00,60.1,58.9,29.74,WSW,248,3.1,3.5,96,0.04,CLR,SCT,1.09,0.0,WeatherDisplay:10.37,2013-05-27 11:15:00,
2013-05-27 06:20:00,60.1,58.9,29.74,SSW,202,2.4,4.6,96,0.04,CLR,SCT,1.09,0.0,WeatherDisplay:10.37,2013-05-27 11:20:00,
2013-05-27 06:25:00,60.1,58.9,29.74,WSW,248,1.4,2.3,96,0.04,CLR,SCT,1.09,0.0,WeatherDisplay:10.37,2013-05-27 11:25:00,
2013-05-27 06:30:00,60.1,59.2,29.74,South,180,0.9,3.5,97,0.04,CLR,SCT,1.09,0.0,WeatherDisplay:10.37,2013-05-27 11:30:00,
2013-05-27 06:35:00,60.1,59.2,29.74,ESE,112,3.8,4.6,97,0.04,CLR,SCT,1.09,0.0,WeatherDisplay:10.37,2013-05-27 11:35:00,
2013-05-27 06:40:00,60.1,59.2,29.71,ESE,112,4.7,6.9,97,0.08,RA,SCT,1.13,0.0,WeatherDisplay:10.37,2013-05-27 11:40:00,
2013-05-27 06:45:00,60.3,59.7,29.71,South,180,4.9,6.2,98,0.04,RA,SCT,1.13,0.0,WeatherDisplay:10.37,2013-05-27 11:45:00,
2013-05-27 06:51:00,60.3,59.7,29.71,SSW,202,7.4,10.4,98,0.04,CLR,SCT,1.13,0.0,WeatherDisplay:10.37,2013-05-27 11:51:00,
2013-05-27 06:56:00,60.3,59.7,29.77,SSE,158,11.4,16.1,98,0.04,CLR,SCT,1.13,0.0,WeatherDisplay:10.37,2013-05-27 11:56:00,
2013-05-27 07:01:00,60.4,59.9,29.77,ESE,112,8.5,10.4,98,0.04,CLR,SCT,1.13,0.0,WeatherDisplay:10.37,2013-05-27 12:01:00,
2013-05-27 07:06:00,60.4,59.9,29.77,ESE,112,3.8,7.1,98,0.04,CLR,SCT,1.13,0.0,WeatherDisplay:10.37,2013-05-27 12:06:00,
2013-05-27 07:11:00,60.4,59.9,29.77,South,180,3.1,5.8,98,0.04,CLR,SCT,1.13,0.0,WeatherDisplay:10.37,2013-05-27 12:11:00,
2013-05-27 07:16:00,60.3,59.7,29.77,ESE,112,0.9,2.4,98,0.04,CLR,SCT,1.13,0.0,WeatherDisplay:10.37,2013-05-27 12:16:00,
2013-05-27 07:21:00,60.3,59.7,29.77,ESE,112,3.1,3.8,98,0.04,CLR,SCT,1.13,0.0,WeatherDisplay:10.37,2013-05-27 12:21:00,
2013-05-27 07:26:00,60.3,59.7,29.77,ESE,112,3.8,3.8,98,0.04,CLR,SCT,1.13,0.0,WeatherDisplay:10.37,2013-05-27 12:26:00,
2013-05-27 07:31:00,60.3,59.7,29.77,WSW,248,2.2,4.6,98,0.04,CLR,SCT,1.13,0.0,WeatherDisplay:10.37,2013-05-27 12:31:00,
2013-05-27 07:36:00,60.4,59.9,29.77,WNW,292,10.9,13.8,98,0.04,CLR,SCT,1.13,0.0,WeatherDisplay:10.37,2013-05-27 12:36:00,
2013-05-27 07:41:00,60.4,59.9,29.85,WNW,292,6.0,8.1,98,0.00,CLR,SCT,1.13,0.0,WeatherDisplay:10.37,2013-05-27 12:41:00,
2013-05-27 07:46:00,60.6,60.1,29.85,West,270,3.6,6.0,98,0.00,CLR,SCT,1.13,0.0,WeatherDisplay:10.37,2013-05-27 12:46:00,
2013-05-27 07:51:00,60.6,60.1,29.85,West,270,4.5,7.8,98,0.00,CLR,SCT,1.13,0.0,WeatherDisplay:10.37,2013-05-27 12:51:00,
2013-05-27 07:56:00,60.8,60.2,29.83,SW,225,4.0,5.8,98,0.00,CLR,SCT,1.13,0.0,WeatherDisplay:10.37,2013-05-27 12:56:00,
2013-05-27 08:02:00,60.6,60.1,29.83,NNW,338,0.0,2.3,98,0.00,CLR,SCT,1.13,0.0,WeatherDisplay:10.37,2013-05-27 13:02:00,
2013-05-27 08:07:00,60.6,60.1,29.83,East,90,1.1,1.1,98,0.00,CLR,SCT,1.13,0.0,WeatherDisplay:10.37,2013-05-27 13:07:00,
2013-05-27 08:12:00,60.8,60.2,29.85,WSW,248,6.0,8.5,98,0.04,RA,SCT,1.17,0.0,WeatherDisplay:10.37,2013-05-27 13:12:00,
2013-05-27 08:17:00,60.6,60.1,29.85,SSE,158,3.1,3.5,98,0.04,RA,SCT,1.17,0.0,WeatherDisplay:10.37,2013-05-27 13:17:00,
2013-05-27 08:22:00,60.6,60.1,29.85,SSE,158,3.1,5.9,98,0.04,CLR,SCT,1.17,0.0,WeatherDisplay:10.37,2013-05-27 13:22:00,
2013-05-27 08:27:00,60.6,60.1,29.80,NNW,338,4.3,8.7,98,0.04,CLR,SCT,1.17,0.0,WeatherDisplay:10.37,2013-05-27 13:27:00,
2013-05-27 08:32:00,60.8,60.2,29.80,WSW,248,3.3,6.2,98,0.04,CLR,SCT,1.17,0.0,WeatherDisplay:10.37,2013-05-27 13:32:00,
2013-05-27 08:37:00,60.8,60.2,29.80,SSW,202,1.6,2.3,98,0.04,CLR,SCT,1.17,0.0,WeatherDisplay:10.37,2013-05-27 13:37:00,
2013-05-27 08:42:00,60.6,60.1,29.83,East,90,4.3,8.5,98,0.04,CLR,SCT,1.17,0.0,WeatherDisplay:10.37,2013-05-27 13:42:00,
2013-05-27 08:48:00,60.6,60.1,29.83,SSE,158,5.4,8.1,98,0.04,CLR,SCT,1.17,0.0,WeatherDisplay:10.37,2013-05-27 13:48:00,
2013-05-27 08:53:00,60.6,60.1,29.83,ESE,112,6.4,6.9,98,0.04,BKN,SCT,1.17,0.0,WeatherDisplay:10.37,2013-05-27 13:53:00,
2013-05-27 08:58:00,60.6,60.1,29.74,ESE,112,2.4,3.5,98,0.04,OVC,SCT,1.17,0.0,WeatherDisplay:10.37,2013-05-27 13:58:00,
2013-05-27 09:03:00,60.6,60.1,29.74,East,90,4.5,7.4,98,0.04,OVC,SCT,1.17,0.0,WeatherDisplay:10.37,2013-05-27 14:03:00,
2013-05-27 09:08:00,60.6,60.1,29.74,East,90,1.4,2.3,98,0.04,OVC,SCT,1.17,0.0,WeatherDisplay:10.37,2013-05-27 14:08:00,
2013-05-27 09:13:00,60.6,60.1,29.74,ESE,112,4.0,6.9,98,0.00,OVC,SCT,1.17,0.0,WeatherDisplay:10.37,2013-05-27 14:13:00,
2013-05-27 09:18:00,60.6,60.1,29.74,NNE,22,4.0,5.8,98,0.33,RA,SCT,1.50,0.0,WeatherDisplay:10.37,2013-05-27 14:18:00,
2013-05-27 09:23:00,60.6,60.1,29.74,ESE,112,3.6,4.9,98,0.33,RA,SCT,1.50,0.0,WeatherDisplay:10.37,2013-05-27 14:23:00,
2013-05-27 09:28:00,60.6,60.1,29.71,ENE,68,4.7,6.0,98,0.33,OVC,SCT,1.50,0.0,WeatherDisplay:10.37,2013-05-27 14:28:00,
2013-05-27 09:33:00,60.6,60.1,29.71,ESE,112,4.7,7.1,98,0.33,OVC,SCT,1.50,0.0,WeatherDisplay:10.37,2013-05-27 14:33:00,
2013-05-27 09:38:00,60.8,60.2,29.71,South,180,5.4,8.1,98,0.33,OVC,SCT,1.50,0.0,WeatherDisplay:10.37,2013-05-27 14:38:00,
2013-05-27 09:43:00,61.0,60.4,29.71,South,180,6.4,10.0,98,0.37,RA,SCT,1.54,0.0,WeatherDisplay:10.37,2013-05-27 14:43:00,
2013-05-27 09:49:00,61.0,60.4,29.71,SSW,202,8.5,13.8,98,0.37,RA,SCT,1.54,0.0,WeatherDisplay:10.37,2013-05-27 14:49:00,
2013-05-27 09:54:00,61.3,60.8,29.71,SSW,202,7.8,15.0,98,0.37,OVC,SCT,1.54,0.0,WeatherDisplay:10.37,2013-05-27 14:54:00,
2013-05-27 09:59:00,61.7,61.1,29.71,SSW,202,7.6,12.7,98,0.37,OVC,SCT,1.54,0.0,WeatherDisplay:10.37,2013-05-27 14:59:00,
2013-05-27 10:04:00,61.7,61.1,29.71,SSW,202,12.1,16.1,98,0.37,OVC,SCT,1.54,0.0,WeatherDisplay:10.37,2013-05-27 15:04:00,
2013-05-27 10:09:00,61.9,61.3,29.71,SSW,202,7.1,10.7,98,0.37,OVC,SCT,1.54,0.0,WeatherDisplay:10.37,2013-05-27 15:09:00,
2013-05-27 10:14:00,62.2,61.7,29.71,SSE,158,5.6,7.6,98,0.37,OVC,SCT,1.54,0.0,WeatherDisplay:10.37,2013-05-27 15:14:00,
2013-05-27 10:19:00,62.2,61.7,29.71,SSE,158,8.5,13.2,98,0.04,OVC,SCT,1.54,100.0,WeatherDisplay:10.37,2013-05-27 15:19:00,
2013-05-27 10:24:00,62.4,61.3,29.71,SW,225,9.4,13.8,96,0.04,OVC,SCT,1.54,100.0,WeatherDisplay:10.37,2013-05-27 15:24:00,
2013-05-27 10:29:00,63.0,61.5,29.68,South,180,7.1,10.9,95,0.04,OVC,SCT,1.54,100.0,WeatherDisplay:10.37,2013-05-27 15:29:00,
2013-05-27 10:34:00,63.1,61.4,29.68,SW,225,7.4,16.3,94,0.04,OVC,SCT,1.54,100.0,WeatherDisplay:10.37,2013-05-27 15:34:00,
2013-05-27 10:39:00,63.5,61.4,29.68,WSW,248,6.2,11.4,93,0.04,OVC,SCT,1.54,100.0,WeatherDisplay:10.37,2013-05-27 15:39:00,
2013-05-27 10:44:00,64.0,61.7,29.71,SSW,202,7.4,10.5,92,0.00,OVC,SCT,1.54,100.0,WeatherDisplay:10.37,2013-05-27 15:44:00,
2013-05-27 10:49:00,63.9,60.6,29.71,SSW,202,8.7,12.5,89,0.00,OVC,SCT,1.54,100.0,WeatherDisplay:10.37,2013-05-27 15:49:00,
2013-05-27 10:55:00,64.6,61.3,29.71,South,180,2.9,4.6,89,0.00,OVC,SCT,1.54,100.0,WeatherDisplay:10.37,2013-05-27 15:55:00,
2013-05-27 11:00:00,64.9,60.6,29.74,SSE,158,3.3,8.1,86,0.00,OVC,SCT,1.54,100.0,WeatherDisplay:10.37,2013-05-27 16:00:00,
2013-05-27 11:05:00,65.7,61.4,29.74,SW,225,2.6,4.9,86,0.00,OVC,SCT,1.54,100.0,WeatherDisplay:10.37,2013-05-27 16:05:00,
2013-05-27 11:10:00,65.7,59.0,29.74,SSW,202,2.9,4.6,79,0.00,OVC,SCT,1.54,100.0,WeatherDisplay:10.37,2013-05-27 16:10:00,
2013-05-27 11:15:00,65.8,58.4,29.74,NE,45,1.1,2.3,77,0.00,OVC,SCT,1.54,100.0,WeatherDisplay:10.37,2013-05-27 16:15:00,
2013-05-27 11:20:00,66.2,59.5,29.74,ESE,112,1.4,2.3,79,0.00,OVC,SCT,1.54,0.0,WeatherDisplay:10.37,2013-05-27 16:20:00,
2013-05-27 11:25:00,66.4,59.7,29.77,ESE,112,1.6,2.3,79,0.00,OVC,SCT,1.54,100.0,WeatherDisplay:10.37,2013-05-27 16:25:00,
2013-05-27 11:30:00,66.9,60.5,29.77,West,270,1.4,1.6,80,0.00,OVC,SCT,1.54,100.0,WeatherDisplay:10.37,2013-05-27 16:30:00,
2013-05-27 11:35:00,67.3,59.5,29.77,WSW,248,1.1,2.9,76,0.00,OVC,SCT,1.54,200.0,WeatherDisplay:10.37,2013-05-27 16:35:00,
2013-05-27 11:40:00,67.5,57.7,29.74,North,0,1.1,3.1,71,0.00,OVC,SCT,1.54,200.0,WeatherDisplay:10.37,2013-05-27 16:40:00,
2013-05-27 11:46:00,68.0,58.2,29.74,SSE,158,1.6,2.3,71,0.00,OVC,SCT,1.54,200.0,WeatherDisplay:10.37,2013-05-27 16:46:00,
2013-05-27 11:51:00,68.5,59.2,29.74,SW,225,1.1,1.1,72,0.00,OVC,SCT,1.54,100.0,WeatherDisplay:10.37,2013-05-27 16:51:00,
2013-05-27 11:56:00,68.4,57.0,29.77,SSW,202,2.2,3.3,67,0.00,OVC,SCT,1.54,200.0,WeatherDisplay:10.37,2013-05-27 16:56:00,
2013-05-27 12:01:00,68.7,57.7,29.77,South,180,2.0,3.3,68,0.00,OVC,SCT,1.54,200.0,WeatherDisplay:10.37,2013-05-27 17:01:00,
2013-05-27 12:06:00,69.3,59.1,29.77,SSE,158,2.4,3.5,70,0.00,OVC,SCT,1.54,300.0,WeatherDisplay:10.37,2013-05-27 17:06:00,
2013-05-27 12:12:00,69.6,58.2,29.77,SSE,158,3.6,5.8,67,0.00,OVC,SCT,1.54,200.0,WeatherDisplay:10.37,2013-05-27 17:12:00,
2013-05-27 12:17:00,70.0,58.1,29.77,SSE,158,3.6,5.9,66,0.00,OVC,SCT,1.54,300.0,WeatherDisplay:10.37,2013-05-27 17:17:00,
2013-05-27 12:22:00,69.8,56.6,29.77,SSW,202,2.4,3.5,63,0.00,OVC,SCT,1.54,300.0,WeatherDisplay:10.37,2013-05-27 17:22:00,
2013-05-27 12:27:00,70.0,56.4,29.74,ENE,68,2.6,5.8,62,0.00,OVC,SCT,1.54,100.0,WeatherDisplay:10.37,2013-05-27 17:27:00,
2013-05-27 12:32:00,70.7,58.8,29.74,South,180,4.0,6.4,66,0.00,OVC,SCT,1.54,400.0,WeatherDisplay:10.37,2013-05-27 17:32:00,
2013-05-27 12:37:00,70.7,57.5,29.74,ENE,68,2.9,4.6,63,0.00,OVC,SCT,1.54,300.0,WeatherDisplay:10.37,2013-05-27 17:37:00,
2013-05-27 12:42:00,70.9,58.1,29.77,SSE,158,2.9,4.6,64,0.00,OVC,SCT,1.54,300.0,WeatherDisplay:10.37,2013-05-27 17:42:00,
2013-05-27 12:47:00,70.7,56.6,29.77,NE,45,2.2,2.3,61,0.00,OVC,SCT,1.54,200.0,WeatherDisplay:10.37,2013-05-27 17:47:00,
2013-05-27 12:52:00,70.9,57.2,29.77,SSW,202,1.4,3.5,62,0.00,OVC,SCT,1.54,400.0,WeatherDisplay:10.37,2013-05-27 17:52:00,
2013-05-27 12:57:00,71.2,56.6,29.77,SSE,158,2.4,4.6,60,0.00,OVC,SCT,1.54,300.0,WeatherDisplay:10.37,2013-05-27 17:57:00,
2013-05-27 13:02:00,72.0,58.2,29.77,ESE,112,2.4,3.3,62,0.00,OVC,SCT,1.54,200.0,WeatherDisplay:10.37,2013-05-27 18:02:00,
2013-05-27 13:08:00,72.1,57.0,29.77,SSE,158,4.9,5.8,59,0.00,OVC,SCT,1.54,300.0,WeatherDisplay:10.37,2013-05-27 18:08:00,
2013-05-27 13:13:00,72.3,57.7,29.77,ESE,112,2.2,3.5,60,0.00,OVC,SCT,1.54,400.0,WeatherDisplay:10.37,2013-05-27 18:13:00,
2013-05-27 13:18:00,72.1,54.1,29.77,SSW,202,2.2,3.5,53,0.00,OVC,SCT,1.54,400.0,WeatherDisplay:10.37,2013-05-27 18:18:00,
2013-05-27 13:23:00,72.9,56.7,29.77,SSW,202,3.6,5.8,57,0.00,OVC,SCT,1.54,400.0,WeatherDisplay:10.37,2013-05-27 18:23:00,
2013-05-27 13:28:00,73.0,57.4,29.77,ESE,112,2.9,4.6,58,0.00,OVC,SCT,1.54,200.0,WeatherDisplay:10.37,2013-05-27 18:28:00,
2013-05-27 13:33:00,72.9,55.7,29.77,West,270,2.2,4.6,55,0.00,OVC,SCT,1.54,100.0,WeatherDisplay:10.37,2013-05-27 18:33:00,
2013-05-27 13:38:00,72.9,56.2,29.77,NNE,22,0.9,2.4,56,0.00,OVC,SCT,1.54,100.0,WeatherDisplay:10.37,2013-05-27 18:38:00,
2013-05-27 13:43:00,73.0,56.9,29.74,East,90,3.8,3.8,57,0.00,OVC,SCT,1.54,400.0,WeatherDisplay:10.37,2013-05-27 18:43:00,
2013-05-27 13:49:00,73.2,55.1,29.74,South,180,1.6,2.6,53,0.00,OVC,SCT,1.54,400.0,WeatherDisplay:10.37,2013-05-27 18:49:00,
2013-05-27 13:54:00,73.6,55.9,29.74,ESE,112,3.6,4.6,54,0.00,OVC,SCT,1.54,400.0,WeatherDisplay:10.37,2013-05-27 18:54:00,
2013-05-27 13:59:00,74.1,57.9,29.74,ENE,68,3.6,4.6,57,0.00,OVC,SCT,1.54,400.0,WeatherDisplay:10.37,2013-05-27 18:59:00,
2013-05-27 14:04:00,74.3,57.6,29.74,ESE,112,3.6,4.6,56,0.00,OVC,SCT,1.54,100.0,WeatherDisplay:10.37,2013-05-27 19:04:00,
2013-05-27 14:09:00,73.8,54.0,29.74,SSE,158,2.2,2.3,50,0.00,OVC,SCT,1.54,400.0,WeatherDisplay:10.37,2013-05-27 19:09:00,
2013-05-27 14:14:00,74.3,56.1,29.74,SSW,202,2.9,3.5,53,0.00,OVC,SCT,1.54,400.0,WeatherDisplay:10.37,2013-05-27 19:14:00,
2013-05-27 14:19:00,74.7,56.4,29.74,ESE,112,3.6,5.8,53,0.00,OVC,SCT,1.54,400.0,WeatherDisplay:10.37,2013-05-27 19:19:00,
2013-05-27 14:24:00,74.5,56.2,29.74,ESE,112,2.4,3.5,53,0.00,OVC,SCT,1.54,400.0,WeatherDisplay:10.37,2013-05-27 19:24:00,
2013-05-27 14:29:00,75.0,56.7,29.74,SSE,158,2.4,5.8,53,0.00,OVC,SCT,1.54,400.0,WeatherDisplay:10.37,2013-05-27 19:29:00,
2013-05-27 14:34:00,75.4,57.6,29.74,ESE,112,2.9,4.3,54,0.00,OVC,SCT,1.54,400.0,WeatherDisplay:10.37,2013-05-27 19:34:00,
2013-05-27 14:39:00,75.6,57.2,29.74,ESE,112,3.3,5.8,53,0.00,OVC,SCT,1.54,400.0,WeatherDisplay:10.37,2013-05-27 19:39:00,
2013-05-27 14:44:00,75.4,56.0,29.74,ESE,112,0.0,2.3,51,0.00,OVC,SCT,1.54,100.0,WeatherDisplay:10.37,2013-05-27 19:44:00,
2013-05-27 14:49:00,75.4,56.5,29.74,SSE,158,3.1,4.6,52,0.00,OVC,SCT,1.54,100.0,WeatherDisplay:10.37,2013-05-27 19:49:00,
2013-05-27 14:54:00,75.6,56.2,29.74,ESE,112,3.3,4.5,51,0.00,OVC,SCT,1.54,300.0,WeatherDisplay:10.37,2013-05-27 19:54:00,
2013-05-27 15:00:00,75.7,56.9,29.71,ENE,68,3.6,5.8,52,0.00,OVC,SCT,1.54,400.0,WeatherDisplay:10.37,2013-05-27 20:00:00,
2013-05-27 15:05:00,75.7,56.3,29.71,ESE,112,3.8,5.8,51,0.00,OVC,SCT,1.54,200.0,WeatherDisplay:10.37,2013-05-27 20:05:00,
2013-05-27 15:10:00,75.7,56.3,29.71,NE,45,2.9,3.5,51,0.00,OVC,SCT,1.54,100.0,WeatherDisplay:10.37,2013-05-27 20:10:00,
2013-05-27 15:15:00,76.1,56.7,29.71,ESE,112,2.4,4.0,51,0.00,OVC,SCT,1.54,400.0,WeatherDisplay:10.37,2013-05-27 20:15:00,
2013-05-27 15:20:00,76.1,55.5,29.71,NNE,22,3.8,5.8,49,0.00,OVC,SCT,1.54,400.0,WeatherDisplay:10.37,2013-05-27 20:20:00,
2013-05-27 15:25:00,76.3,55.7,29.71,ESE,112,2.2,4.6,49,0.00,OVC,SCT,1.54,400.0,WeatherDisplay:10.37,2013-05-27 20:25:00,
2013-05-27 15:31:00,76.8,57.3,29.71,ESE,112,2.0,6.2,51,0.00,OVC,SCT,1.54,300.0,WeatherDisplay:10.37,2013-05-27 20:31:00,
2013-05-27 15:36:00,76.8,56.2,29.71,East,90,2.2,4.6,49,0.00,OVC,SCT,1.54,300.0,WeatherDisplay:10.37,2013-05-27 20:36:00,
2013-05-27 15:41:00,77.0,56.4,29.71,ENE,68,3.6,5.8,49,0.00,OVC,SCT,1.54,300.0,WeatherDisplay:10.37,2013-05-27 20:41:00,
2013-05-27 15:46:00,76.8,54.5,29.71,South,180,3.6,6.9,46,0.00,OVC,SCT,1.54,300.0,WeatherDisplay:10.37,2013-05-27 20:46:00,
2013-05-27 15:51:00,77.0,54.0,29.71,North,0,2.2,9.2,45,0.00,OVC,SCT,1.54,300.0,WeatherDisplay:10.37,2013-05-27 20:51:00,
2013-05-27 15:56:00,77.5,56.3,29.68,ENE,68,4.5,5.4,48,0.00,OVC,SCT,1.54,300.0,WeatherDisplay:10.37,2013-05-27 20:56:00,
2013-05-27 16:01:00,77.7,55.9,29.68,ENE,68,3.6,3.6,47,0.00,OVC,SCT,1.54,300.0,WeatherDisplay:10.37,2013-05-27 21:01:00,
2013-05-27 16:06:00,77.7,55.9,29.68,ESE,112,4.3,6.9,47,0.00,OVC,SCT,1.54,300.0,WeatherDisplay:10.37,2013-05-27 21:06:00,
2013-05-27 16:11:00,77.7,56.5,29.71,ESE,112,1.6,3.6,48,0.00,OVC,SCT,1.54,100.0,WeatherDisplay:10.37,2013-05-27 21:11:00,
2013-05-27 16:16:00,77.5,55.7,29.71,ESE,112,2.6,4.7,47,0.00,OVC,SCT,1.54,0.0,WeatherDisplay:10.37,2013-05-27 21:16:00,
2013-05-27 16:21:00,77.2,54.2,29.71,ESE,112,3.1,4.6,45,0.00,OVC,SCT,1.54,200.0,WeatherDisplay:10.37,2013-05-27 21:21:00,
2013-05-27 16:26:00,77.0,55.2,29.71,ESE,112,2.9,4.9,47,0.00,OVC,SCT,1.54,200.0,WeatherDisplay:10.37,2013-05-27 21:26:00,
2013-05-27 16:31:00,77.2,55.4,29.71,ENE,68,2.2,4.9,47,0.00,OVC,SCT,1.54,100.0,WeatherDisplay:10.37,2013-05-27 21:31:00,
2013-05-27 16:36:00,77.0,54.6,29.71,ESE,112,2.2,3.5,46,0.00,OVC,SCT,1.54,0.0,WeatherDisplay:10.37,2013-05-27 21:36:00,
2013-05-27 16:41:00,76.6,54.9,29.71,East,90,3.3,4.6,47,0.00,OVC,SCT,1.54,0.0,WeatherDisplay:10.37,2013-05-27 21:41:00,
2013-05-27 16:46:00,76.3,54.0,29.71,East,90,3.1,3.5,46,0.00,OVC,SCT,1.54,100.0,WeatherDisplay:10.37,2013-05-27 21:46:00,
2013-05-27 16:51:00,76.5,54.1,29.71,ESE,112,1.1,2.3,46,0.00,OVC,SCT,1.54,0.0,WeatherDisplay:10.37,2013-05-27 21:51:00,
2013-05-27 16:56:00,76.3,54.0,29.71,ESE,112,3.8,4.9,46,0.00,OVC,SCT,1.54,0.0,WeatherDisplay:10.37,2013-05-27 21:56:00,
2013-05-27 17:01:00,75.7,53.5,29.71,East,90,3.8,5.8,46,0.00,OVC,SCT,1.54,100.0,WeatherDisplay:10.37,2013-05-27 22:01:00,
2013-05-27 17:06:00,75.6,54.5,29.71,ESE,112,4.0,4.7,48,0.00,OVC,SCT,1.54,100.0,WeatherDisplay:10.37,2013-05-27 22:06:00,
2013-05-27 17:11:00,75.7,55.2,29.68,ESE,112,4.5,4.9,49,0.00,OVC,SCT,1.54,100.0,WeatherDisplay:10.37,2013-05-27 22:11:00,
2013-05-27 17:16:00,75.9,55.4,29.68,SSW,202,3.3,5.8,49,0.00,OVC,SCT,1.54,100.0,WeatherDisplay:10.37,2013-05-27 22:16:00,
2013-05-27 17:22:00,76.1,55.5,29.68,ESE,112,2.9,5.8,49,0.00,OVC,SCT,1.54,100.0,WeatherDisplay:10.37,2013-05-27 22:22:00,
2013-05-27 17:27:00,76.5,55.9,29.71,ESE,112,3.6,4.6,49,0.00,OVC,SCT,1.54,100.0,WeatherDisplay:10.37,2013-05-27 22:27:00,
2013-05-27 17:32:00,76.6,56.0,29.71,ESE,112,3.8,5.8,49,0.00,OVC,SCT,1.54,100.0,WeatherDisplay:10.37,2013-05-27 22:32:00,
2013-05-27 17:37:00,76.6,55.5,29.71,ENE,68,3.6,5.8,48,0.00,OVC,SCT,1.54,100.0,WeatherDisplay:10.37,2013-05-27 22:37:00,
2013-05-27 17:42:00,76.5,54.7,29.68,East,90,3.1,3.6,47,0.00,OVC,SCT,1.54,0.0,WeatherDisplay:10.37,2013-05-27 22:42:00,
2013-05-27 17:47:00,76.6,55.5,29.68,ENE,68,3.3,4.6,48,0.00,OVC,SCT,1.54,0.0,WeatherDisplay:10.37,2013-05-27 22:47:00,
2013-05-27 17:52:00,76.6,55.5,29.68,East,90,3.3,6.2,48,0.00,OVC,SCT,1.54,0.0,WeatherDisplay:10.37,2013-05-27 22:52:00,
2013-05-27 17:57:00,76.5,55.3,29.68,East,90,3.8,4.6,48,0.00,OVC,SCT,1.54,0.0,WeatherDisplay:10.37,2013-05-27 22:57:00,
2013-05-27 18:02:00,76.3,55.1,29.68,ESE,112,2.9,4.6,48,0.00,BKN,SCT,1.54,0.0,WeatherDisplay:10.37,2013-05-27 23:02:00,
2013-05-27 18:07:00,75.9,55.4,29.68,ENE,68,3.1,5.9,49,0.00,BKN,SCT,1.54,0.0,WeatherDisplay:10.37,2013-05-27 23:07:00,
2013-05-27 18:12:00,75.7,55.2,29.65,ESE,112,4.5,6.0,49,0.00,BKN,SCT,1.54,0.0,WeatherDisplay:10.37,2013-05-27 23:12:00,
2013-05-27 18:17:00,75.6,55.6,29.65,ENE,68,4.0,4.9,50,0.00,BKN,SCT,1.54,0.0,WeatherDisplay:10.37,2013-05-27 23:17:00,
2013-05-27 18:22:00,75.6,56.2,29.65,ESE,112,2.4,4.7,51,0.00,BKN,SCT,1.54,0.0,WeatherDisplay:10.37,2013-05-27 23:22:00,
2013-05-27 18:28:00,75.7,56.3,29.65,East,90,2.9,4.6,51,0.00,BKN,SCT,1.54,0.0,WeatherDisplay:10.37,2013-05-27 23:28:00,
2013-05-27 18:33:00,75.4,55.4,29.65,NE,45,4.3,5.9,50,0.00,BKN,SCT,1.54,0.0,WeatherDisplay:10.37,2013-05-27 23:33:00,
2013-05-27 18:38:00,75.0,55.7,29.65,ENE,68,4.0,4.6,51,0.00,BKN,SCT,1.54,0.0,WeatherDisplay:10.37,2013-05-27 23:38:00,
2013-05-27 18:43:00,74.7,55.9,29.68,SE,135,2.4,6.2,52,0.00,BKN,SCT,1.54,0.0,WeatherDisplay:10.37,2013-05-27 23:43:00,
2013-05-27 18:48:00,74.3,55.5,29.68,East,90,3.6,4.0,52,0.00,BKN,SCT,1.54,0.0,WeatherDisplay:10.37,2013-05-27 23:48:00,
2013-05-27 18:53:00,74.1,55.9,29.68,ESE,112,4.7,5.8,53,0.00,BKN,SCT,1.54,0.0,WeatherDisplay:10.37,2013-05-27 23:53:00,
2013-05-27 18:58:00,73.9,56.2,29.65,ESE,112,3.8,4.6,54,0.00,BKN,SCT,1.54,0.0,WeatherDisplay:10.37,2013-05-27 23:58:00,
2013-05-27 19:03:00,73.8,56.1,29.65,ENE,68,4.3,6.4,54,0.00,BKN,SCT,1.54,0.0,WeatherDisplay:10.37,2013-05-28 00:03:00,
2013-05-27 19:08:00,73.4,56.7,29.65,ESE,112,5.4,5.8,56,0.00,BKN,SCT,1.54,0.0,WeatherDisplay:10.37,2013-05-28 00:08:00,
2013-05-27 19:13:00,73.2,57.1,29.65,ENE,68,4.3,5.6,57,0.00,BKN,SCT,1.54,0.0,WeatherDisplay:10.37,2013-05-28 00:13:00,
2013-05-27 19:18:00,73.0,57.4,29.65,ESE,112,3.6,5.6,58,0.00,BKN,SCT,1.54,0.0,WeatherDisplay:10.37,2013-05-28 00:18:00,
2013-05-27 19:23:00,72.7,57.0,29.65,ESE,112,2.9,4.7,58,0.00,BKN,SCT,1.54,0.0,WeatherDisplay:10.37,2013-05-28 00:23:00,
2013-05-27 19:29:00,72.5,57.4,29.65,East,90,3.8,5.8,59,0.00,BKN,SCT,1.54,0.0,WeatherDisplay:10.37,2013-05-28 00:29:00,
2013-05-27 19:34:00,72.5,57.8,29.65,ESE,112,5.9,8.1,60,0.00,SCT,,1.54,0.0,WeatherDisplay:10.37,2013-05-28 00:34:00,
2013-05-27 19:39:00,72.1,57.9,29.65,ESE,112,4.3,5.8,61,0.00,SCT,,1.54,0.0,WeatherDisplay:10.37,2013-05-28 00:39:00,
2013-05-27 19:44:00,72.0,58.2,29.65,East,90,3.6,7.4,62,0.00,SCT,,1.54,0.0,WeatherDisplay:10.37,2013-05-28 00:44:00,
2013-05-27 19:49:00,71.8,58.5,29.65,ENE,68,3.1,4.7,63,0.00,SCT,,1.54,0.0,WeatherDisplay:10.37,2013-05-28 00:49:00,
2013-05-27 19:54:00,71.6,58.3,29.65,ESE,112,4.7,8.1,63,0.00,SCT,,1.54,0.0,WeatherDisplay:10.37,2013-05-28 00:54:00,
2013-05-27 19:59:00,71.4,58.6,29.62,ESE,112,4.9,8.1,64,0.00,SCT,,1.54,0.0,WeatherDisplay:10.37,2013-05-28 00:59:00,
2013-05-27 20:04:00,71.2,58.4,29.62,NE,45,4.7,8.1,64,0.00,SCT,,1.54,0.0,WeatherDisplay:10.37,2013-05-28 01:04:00,
2013-05-27 20:09:00,71.1,58.3,29.62,ESE,112,2.9,6.2,64,0.00,SCT,,1.54,0.0,WeatherDisplay:10.37,2013-05-28 01:09:00,
2013-05-27 20:14:00,70.9,58.1,29.65,NNE,22,3.1,7.6,64,0.00,SCT,,1.54,0.0,WeatherDisplay:10.37,2013-05-28 01:14:00,
2013-05-27 20:19:00,70.7,58.4,29.65,ENE,68,5.6,6.9,65,0.00,SCT,,1.54,0.0,WeatherDisplay:10.37,2013-05-28 01:19:00,
2013-05-27 20:24:00,70.7,58.4,29.65,ESE,112,5.4,5.8,65,0.00,SCT,,1.54,0.0,WeatherDisplay:10.37,2013-05-28 01:24:00,
2013-05-27 20:29:00,70.7,58.4,29.65,ESE,112,5.6,6.9,65,0.00,SCT,,1.54,0.0,WeatherDisplay:10.37,2013-05-28 01:29:00,
2013-05-27 20:34:00,70.5,58.2,29.65,ESE,112,2.9,5.8,65,0.00,SCT,,1.54,0.0,WeatherDisplay:10.37,2013-05-28 01:34:00,
2013-05-27 20:39:00,70.5,58.2,29.65,ESE,112,4.3,5.8,65,0.00,SCT,,1.54,0.0,WeatherDisplay:10.37,2013-05-28 01:39:00,
2013-05-27 20:44:00,70.5,58.6,29.68,ESE,112,4.0,5.8,66,0.00,SCT,,1.54,0.0,WeatherDisplay:10.37,2013-05-28 01:44:00,
2013-05-27 20:49:00,70.3,58.4,29.68,ESE,112,5.4,8.1,66,0.00,SCT,,1.54,0.0,WeatherDisplay:10.37,2013-05-28 01:49:00,
2013-05-27 20:54:00,70.3,58.0,29.68,ESE,112,5.9,8.1,65,0.00,SCT,,1.54,0.0,WeatherDisplay:10.37,2013-05-28 01:54:00,
2013-05-27 20:59:00,70.3,58.0,29.65,ENE,68,4.7,5.8,65,0.00,SCT,,1.54,0.0,WeatherDisplay:10.37,2013-05-28 01:59:00,
2013-05-27 21:04:00,70.2,58.3,29.65,East,90,4.9,5.8,66,0.00,SCT,,1.54,0.0,WeatherDisplay:10.37,2013-05-28 02:04:00,
2013-05-27 21:09:00,70.0,58.1,29.65,NE,45,5.4,8.1,66,0.00,SCT,,1.54,0.0,WeatherDisplay:10.37,2013-05-28 02:09:00,
2013-05-27 21:14:00,70.0,58.1,29.65,NNE,22,4.7,5.8,66,0.00,SCT,,1.54,0.0,WeatherDisplay:10.37,2013-05-28 02:14:00,
2013-05-27 21:19:00,70.0,58.1,29.65,ESE,112,3.6,6.2,66,0.00,SCT,,1.54,0.0,WeatherDisplay:10.37,2013-05-28 02:19:00,
2013-05-27 21:24:00,70.0,58.1,29.65,ENE,68,3.1,7.4,66,0.00,SCT,,1.54,0.0,WeatherDisplay:10.37,2013-05-28 02:24:00,
2013-05-27 21:29:00,70.0,58.1,29.71,ESE,112,5.6,5.8,66,0.00,SCT,,1.54,0.0,WeatherDisplay:10.37,2013-05-28 02:29:00,
2013-05-27 21:34:00,69.8,58.3,29.71,ESE,112,4.3,5.8,67,0.00,SCT,,1.54,0.0,WeatherDisplay:10.37,2013-05-28 02:34:00,
2013-05-27 21:39:00,69.6,58.2,29.71,ENE,68,3.6,4.6,67,0.00,SCT,,1.54,0.0,WeatherDisplay:10.37,2013-05-28 02:39:00,
2013-05-27 21:44:00,69.3,58.7,29.71,East,90,3.1,4.6,69,0.00,SCT,,1.54,0.0,WeatherDisplay:10.37,2013-05-28 02:44:00,
2013-05-27 21:49:00,68.9,58.3,29.71,ESE,112,2.9,3.5,69,0.00,SCT,,1.54,0.0,WeatherDisplay:10.37,2013-05-28 02:49:00,
2013-05-27 21:54:00,68.5,58.4,29.71,ESE,112,3.1,4.6,70,0.00,SCT,,1.54,0.0,WeatherDisplay:10.37,2013-05-28 02:54:00,
2013-05-27 21:59:00,68.4,58.6,29.71,ESE,112,0.0,2.3,71,0.00,SCT,,1.54,0.0,WeatherDisplay:10.37,2013-05-28 02:59:00,
2013-05-27 22:04:00,68.2,61.4,29.71,SSW,202,2.6,3.3,79,0.00,SCT,,1.54,0.0,WeatherDisplay:10.37,2013-05-28 03:04:00,
2013-05-27 22:09:00,68.0,62.3,29.71,WNW,292,3.1,3.5,82,0.00,SCT,,1.54,0.0,WeatherDisplay:10.37,2013-05-28 03:09:00,
2013-05-27 22:14:00,67.8,62.1,29.71,ENE,68,3.8,6.0,82,0.00,SCT,,1.54,0.0,WeatherDisplay:10.37,2013-05-28 03:14:00,
2013-05-27 22:19:00,67.6,61.6,29.71,ENE,68,3.3,5.4,81,0.04,RA,SCT,1.58,0.0,WeatherDisplay:10.37,2013-05-28 03:19:00,
2013-05-27 22:24:00,67.5,61.8,29.71,ENE,68,2.6,3.1,82,0.04,RA,SCT,1.58,0.0,WeatherDisplay:10.37,2013-05-28 03:24:00,
2013-05-27 22:29:00,67.3,61.2,29.71,ESE,112,2.9,3.5,81,0.08,RA,SCT,1.62,0.0,WeatherDisplay:10.37,2013-05-28 03:29:00,
2013-05-27 22:34:00,67.1,61.1,29.71,East,90,5.6,8.5,81,0.08,RA,SCT,1.62,0.0,WeatherDisplay:10.37,2013-05-28 03:34:00,
2013-05-27 22:39:00,66.7,61.1,29.71,ESE,112,6.0,6.0,82,0.08,SCT,,1.62,0.0,WeatherDisplay:10.37,2013-05-28 03:39:00,
2013-05-27 22:44:00,66.7,61.7,29.68,East,90,6.0,8.5,84,0.08,SCT,,1.62,0.0,WeatherDisplay:10.37,2013-05-28 03:44:00,
2013-05-27 22:49:00,66.6,61.9,29.68,ESE,112,5.6,6.9,85,0.08,SCT,,1.62,0.0,WeatherDisplay:10.37,2013-05-28 03:49:00,
2013-05-27 22:54:00,66.6,62.6,29.68,ESE,112,7.6,10.4,87,0.08,SCT,,1.62,0.0,WeatherDisplay:10.37,2013-05-28 03:54:00,
2013-05-27 22:59:00,66.4,62.4,29.68,East,90,6.2,10.4,87,0.08,SCT,,1.62,0.0,WeatherDisplay:10.37,2013-05-28 03:59:00,
2013-05-27 23:01:00,66.4,62.4,29.68,ESE,112,6.2,8.1,87,0.08,SCT,,1.62,0.0,WeatherDisplay:10.37,2013-05-28 04:01:00,
2013-05-27 23:06:00,66.2,62.5,29.68,ENE,68,3.8,6.9,88,0.08,SCT,,1.62,0.0,WeatherDisplay:10.37,2013-05-28 04:06:00,
2013-05-27 23:12:00,66.0,62.7,29.62,ESE,112,5.9,8.1,89,0.08,SCT,,1.62,0.0,WeatherDisplay:10.37,2013-05-28 04:12:00,
2013-05-27 23:17:00,66.0,62.7,29.62,ESE,112,7.1,10.4,89,0.04,SCT,,1.62,0.0,WeatherDisplay:10.37,2013-05-28 04:17:00,
2013-05-27 23:22:00,65.8,62.8,29.62,ESE,112,8.7,12.7,90,0.04,SCT,,1.62,0.0,WeatherDisplay:10.37,2013-05-28 04:22:00,
2013-05-27 23:27:00,65.8,63.1,29.56,ENE,68,7.1,10.7,91,0.00,SCT,,1.62,0.0,WeatherDisplay:10.37,2013-05-28 04:27:00,
2013-05-27 23:32:00,65.8,63.1,29.56,ESE,112,7.4,15.0,91,0.00,SCT,,1.62,0.0,WeatherDisplay:10.37,2013-05-28 04:32:00,
2013-05-27 23:37:00,65.7,63.0,29.56,ENE,68,5.9,6.9,91,0.00,SCT,,1.62,0.0,WeatherDisplay:10.37,2013-05-28 04:37:00,
2013-05-27 23:42:00,65.7,63.0,29.59,SSE,158,6.2,9.2,91,0.00,SCT,,1.62,0.0,WeatherDisplay:10.37,2013-05-28 04:42:00,
2013-05-27 23:47:00,65.7,63.0,29.59,SE,135,5.6,8.1,91,0.00,SCT,,1.62,0.0,WeatherDisplay:10.37,2013-05-28 04:47:00,
2013-05-27 23:52:00,65.7,63.0,29.59,ESE,112,6.4,7.1,91,0.00,SCT,,1.62,0.0,WeatherDisplay:10.37,2013-05-28 04:52:00,
2013-05-27 23:57:00,65.7,63.3,29.59,ESE,112,6.2,7.6,92,0.00,SCT,,1.62,0.0,WeatherDisplay:10.37,2013-05-28 04:57:00,